createdAt,value
2022-09-25T00:01:31.443Z,13.70
2022-09-25T00:06:10.095Z,13.70
2022-09-25T00:10:18.925Z,13.70
2022-09-25T00:14:27.492Z,13.60
2022-09-25T00:18:54.412Z,13.50
2022-09-25T00:23:02.962Z,13.50
2022-09-25T00:27:12.073Z,13.40
2022-09-25T00:31:25.610Z,13.40
2022-09-25T00:35:35.118Z,13.40
2022-09-25T00:39:43.678Z,13.40
2022-09-25T00:43:56.162Z,13.40
2022-09-25T00:48:10.550Z,13.40
2022-09-25T00:52:20.921Z,13.40
2022-09-25T00:56:32.554Z,13.40
2022-09-25T01:00:41.943Z,13.50
2022-09-25T01:04:51.449Z,13.50
2022-09-25T01:09:01.134Z,13.60
2022-09-25T01:13:10.238Z,13.60
2022-09-25T01:17:39.682Z,13.50
2022-09-25T01:22:02.907Z,13.50
2022-09-25T01:26:37.030Z,13.50
2022-09-25T01:30:48.846Z,13.40
2022-09-25T01:35:15.815Z,13.40
2022-09-25T01:39:28.246Z,13.40
2022-09-25T01:43:57.700Z,13.50
2022-09-25T01:48:09.142Z,13.50
2022-09-25T01:52:20.798Z,13.50
2022-09-25T01:56:33.596Z,13.50
2022-09-25T02:00:49.981Z,13.40
2022-09-25T02:05:01.628Z,13.40
2022-09-25T02:09:40.024Z,13.40
2022-09-25T02:14:09.934Z,13.40
2022-09-25T02:18:38.363Z,13.40
2022-09-25T02:22:49.279Z,13.40
2022-09-25T02:26:57.841Z,13.40
2022-09-25T02:31:09.587Z,13.30
2022-09-25T02:35:19.083Z,13.20
2022-09-25T02:39:30.565Z,13.10
2022-09-25T02:44:07.917Z,13.20
2022-09-25T02:48:25.435Z,13.10
2022-09-25T02:52:37.098Z,13.10
2022-09-25T02:56:51.384Z,13.10
2022-09-25T03:01:02.514Z,13.10
2022-09-25T03:05:13.546Z,13.10
2022-09-25T03:09:23.844Z,13.20
2022-09-25T03:13:33.177Z,13.10
2022-09-25T03:17:41.746Z,13.10
2022-09-25T03:21:51.179Z,13.10
2022-09-25T03:26:00.091Z,13.10
2022-09-25T03:34:46.387Z,13.00
2022-09-25T03:38:59.265Z,12.90
2022-09-25T03:43:27.172Z,12.90
2022-09-25T03:47:55.306Z,12.90
2022-09-25T03:52:04.533Z,12.80
2022-09-25T03:56:20.229Z,12.80
2022-09-25T04:00:29.449Z,12.70
2022-09-25T04:04:38.030Z,12.70
2022-09-25T04:08:47.733Z,12.70
2022-09-25T04:12:57.174Z,12.70
2022-09-25T04:17:05.804Z,12.80
2022-09-25T04:21:15.983Z,12.70
2022-09-25T04:25:27.034Z,12.70
2022-09-25T04:29:35.604Z,12.70
2022-09-25T04:33:48.254Z,12.60
2022-09-25T04:37:57.564Z,12.60
2022-09-25T04:42:06.393Z,12.60
2022-09-25T04:46:20.933Z,12.60
2022-09-25T04:50:26.392Z,12.60
2022-09-25T04:54:34.989Z,12.60
2022-09-25T04:58:49.971Z,12.60
2022-09-25T05:02:58.917Z,12.60
2022-09-25T05:07:07.898Z,12.50
2022-09-25T05:11:16.909Z,12.50
2022-09-25T05:15:25.951Z,12.50
2022-09-25T05:19:36.004Z,12.40
2022-09-25T05:23:44.552Z,12.40
2022-09-25T05:27:59.075Z,12.40
2022-09-25T05:32:08.151Z,12.30
2022-09-25T05:36:17.968Z,12.20
2022-09-25T05:40:26.888Z,12.10
2022-09-25T05:44:35.514Z,12.20
2022-09-25T05:48:44.139Z,12.20
2022-09-25T05:52:57.886Z,12.20
2022-09-25T05:57:06.538Z,12.40
2022-09-25T06:01:15.180Z,12.40
2022-09-25T06:05:23.758Z,12.30
2022-09-25T06:09:32.327Z,12.20
2022-09-25T06:13:42.552Z,12.20
2022-09-25T06:17:51.462Z,12.20
2022-09-25T06:22:00.031Z,12.10
2022-09-25T06:26:10.291Z,12.10
2022-09-25T06:30:19.915Z,12.00
2022-09-25T06:34:28.495Z,11.90
2022-09-25T06:38:37.096Z,11.90
2022-09-25T06:42:46.185Z,11.90
2022-09-25T06:46:54.723Z,11.80
2022-09-25T06:51:03.273Z,11.80
2022-09-25T06:55:12.133Z,11.80
2022-09-25T06:59:20.682Z,11.90
2022-09-25T07:03:49.031Z,11.90
2022-09-25T07:07:57.616Z,12.00
2022-09-25T07:12:07.137Z,12.10
2022-09-25T07:16:18.574Z,12.10
2022-09-25T07:20:27.280Z,12.20
2022-09-25T07:24:35.914Z,12.20
2022-09-25T07:28:45.050Z,12.20
2022-09-25T07:32:59.185Z,12.20
2022-09-25T07:37:04.135Z,12.20
2022-09-25T07:41:13.550Z,12.30
2022-09-25T07:45:22.069Z,12.30
2022-09-25T07:49:32.059Z,12.40
2022-09-25T07:53:41.257Z,12.60
2022-09-25T07:57:51.939Z,12.70
2022-09-25T08:02:00.570Z,12.80
2022-09-25T08:06:29.471Z,12.90
2022-09-25T08:10:38.201Z,13.00
2022-09-25T08:14:46.829Z,13.10
2022-09-25T08:18:58.231Z,13.10
2022-09-25T08:23:09.263Z,13.30
2022-09-25T08:27:19.315Z,13.50
2022-09-25T08:31:27.920Z,13.60
2022-09-25T08:35:36.786Z,13.60
2022-09-25T08:39:45.461Z,13.70
2022-09-25T08:44:09.000Z,13.80
2022-09-25T08:48:41.425Z,14.00
2022-09-25T08:53:10.845Z,14.00
2022-09-25T08:57:36.293Z,14.20
2022-09-25T09:01:52.282Z,14.30
2022-09-25T09:06:04.119Z,14.60
2022-09-25T09:10:33.622Z,14.80
2022-09-25T09:14:47.912Z,14.90
2022-09-25T09:18:57.313Z,14.90
2022-09-25T09:23:11.055Z,15.00
2022-09-25T09:27:24.484Z,15.00
2022-09-25T09:31:38.781Z,15.10
2022-09-25T09:36:09.097Z,15.30
2022-09-25T09:40:55.158Z,15.40
2022-09-25T09:45:19.954Z,15.60
2022-09-25T09:49:50.442Z,15.70
2022-09-25T09:54:07.726Z,15.70
2022-09-25T09:58:31.230Z,15.90
2022-09-25T10:02:43.061Z,16.20
2022-09-25T10:07:00.651Z,16.20
2022-09-25T10:11:20.595Z,16.30
2022-09-25T10:15:35.742Z,16.40
2022-09-25T10:19:47.452Z,16.40
2022-09-25T10:23:59.106Z,16.70
2022-09-25T10:33:07.152Z,16.90
2022-09-25T10:37:21.938Z,16.70
2022-09-25T10:41:32.149Z,16.50
2022-09-25T10:45:41.075Z,16.10
2022-09-25T10:50:08.003Z,16.20
2022-09-25T10:54:17.735Z,16.60
2022-09-25T10:58:29.371Z,16.90
2022-09-25T11:02:41.067Z,16.80
2022-09-25T11:06:52.828Z,16.70
2022-09-25T11:11:03.198Z,16.90
2022-09-25T11:15:14.828Z,17.10
2022-09-25T11:19:32.119Z,17.30
2022-09-25T11:23:46.494Z,17.50
2022-09-25T11:28:02.849Z,17.60
2022-09-25T11:32:20.307Z,17.70
2022-09-25T11:36:43.787Z,17.80
2022-09-25T11:41:14.691Z,17.70
2022-09-25T11:45:30.482Z,17.30
2022-09-25T11:49:41.649Z,16.90
2022-09-25T11:54:26.981Z,16.70
2022-09-25T11:58:25.392Z,16.70
2022-09-25T12:03:13.272Z,16.90
2022-09-25T12:07:24.914Z,17.40
2022-09-25T12:11:54.436Z,17.70
2022-09-25T12:16:31.066Z,17.70
2022-09-25T12:20:45.507Z,17.60
2022-09-25T12:25:03.390Z,17.30
2022-09-25T12:29:28.994Z,17.20
2022-09-25T12:33:52.509Z,17.60
2022-09-25T12:38:13.850Z,17.80
2022-09-25T12:42:42.155Z,17.80
2022-09-25T12:47:11.768Z,18.00
2022-09-25T12:51:34.110Z,18.00
2022-09-25T12:55:48.588Z,18.10
2022-09-25T13:00:00.375Z,18.20
2022-09-25T13:04:46.368Z,18.20
2022-09-25T13:09:03.525Z,18.30
2022-09-25T13:13:16.819Z,18.30
2022-09-25T13:17:25.462Z,18.30
2022-09-25T13:21:37.258Z,18.40
2022-09-25T13:25:50.490Z,18.30
2022-09-25T13:30:01.882Z,18.40
2022-09-25T13:34:16.181Z,18.30
2022-09-25T13:38:26.392Z,18.50
2022-09-25T13:47:21.459Z,18.10
2022-09-25T13:51:35.695Z,17.80
2022-09-25T13:55:46.749Z,17.50
2022-09-25T13:59:58.405Z,17.30
2022-09-25T14:04:18.636Z,17.20
2022-09-25T14:08:30.982Z,17.20
2022-09-25T14:12:50.438Z,17.20
2022-09-25T14:17:00.246Z,17.10
2022-09-25T14:21:09.927Z,17.30
2022-09-25T14:25:28.609Z,17.40
2022-09-25T14:29:42.841Z,17.40
2022-09-25T14:34:26.250Z,17.30
2022-09-25T14:38:56.467Z,17.40
2022-09-25T14:43:20.620Z,17.50
2022-09-25T14:47:49.904Z,17.40
2022-09-25T14:52:01.556Z,17.20
2022-09-25T14:56:13.592Z,17.10
2022-09-25T15:00:46.759Z,17.00
2022-09-25T15:04:59.698Z,17.00
2022-09-25T15:09:37.878Z,17.00
2022-09-25T15:13:47.094Z,17.00
2022-09-25T15:17:59.574Z,17.00
2022-09-25T15:22:20.206Z,16.90
2022-09-25T15:26:29.589Z,16.70
2022-09-25T15:30:40.531Z,16.50
2022-09-25T15:34:49.172Z,16.30
2022-09-25T15:39:00.822Z,16.20
2022-09-25T15:43:12.477Z,16.10
2022-09-25T15:47:39.184Z,16.00
2022-09-25T15:51:53.580Z,16.00
2022-09-25T15:56:05.207Z,16.00
2022-09-25T16:00:37.836Z,16.00
2022-09-25T16:04:52.018Z,16.00
2022-09-25T16:09:12.529Z,16.00
2022-09-25T16:13:26.185Z,16.00
2022-09-25T16:17:38.590Z,16.00
2022-09-25T16:21:47.175Z,15.90
2022-09-25T16:25:58.717Z,15.80
2022-09-25T16:30:09.390Z,15.80
2022-09-25T16:34:41.508Z,15.70
2022-09-25T16:39:11.786Z,15.70
2022-09-25T16:43:27.960Z,15.70
2022-09-25T16:47:37.662Z,15.60
2022-09-25T16:51:47.626Z,15.60
2022-09-25T16:55:58.760Z,15.50
2022-09-25T17:00:08.173Z,15.50
2022-09-25T17:04:18.095Z,15.50
2022-09-25T17:08:26.653Z,15.40
2022-09-25T17:12:36.282Z,15.30
2022-09-25T17:16:44.855Z,15.20
2022-09-25T17:20:54.774Z,15.10
2022-09-25T17:25:05.910Z,15.00
2022-09-25T17:29:14.567Z,15.00
2022-09-25T17:33:24.401Z,14.90
2022-09-25T17:37:33.885Z,15.00
2022-09-25T17:41:43.309Z,15.00
2022-09-25T17:45:57.036Z,15.00
2022-09-25T17:50:05.799Z,15.00
2022-09-25T17:54:14.388Z,14.90
2022-09-25T17:58:45.458Z,14.70
2022-09-25T18:02:54.411Z,14.70
2022-09-25T18:07:03.935Z,14.70
2022-09-25T18:11:14.130Z,14.70
2022-09-25T18:15:25.723Z,14.70
2022-09-25T18:19:52.684Z,14.70
2022-09-25T18:24:01.385Z,14.70
2022-09-25T18:28:10.128Z,14.70
2022-09-25T18:32:19.875Z,14.70
2022-09-25T18:36:28.441Z,14.70
2022-09-25T18:40:37.035Z,14.70
2022-09-25T18:44:45.575Z,14.70
2022-09-25T18:48:56.025Z,14.70
2022-09-25T18:53:04.800Z,14.60
2022-09-25T18:57:14.219Z,14.50
2022-09-25T19:01:23.234Z,14.50
2022-09-25T19:05:33.124Z,14.30
2022-09-25T19:09:41.777Z,14.30
2022-09-25T19:13:50.493Z,14.20
2022-09-25T19:18:00.046Z,14.10
2022-09-25T19:22:12.180Z,14.00
2022-09-25T19:26:24.689Z,13.90
2022-09-25T19:30:33.303Z,13.90
2022-09-25T19:34:42.226Z,13.80
2022-09-25T19:38:50.883Z,13.70
2022-09-25T19:43:01.029Z,13.60
2022-09-25T19:47:09.593Z,13.50
2022-09-25T19:51:37.735Z,13.50
2022-09-25T19:55:51.741Z,13.40
2022-09-25T20:00:00.402Z,13.40
2022-09-25T20:04:11.918Z,13.30
2022-09-25T20:08:20.040Z,13.30
2022-09-25T20:12:28.918Z,13.20
2022-09-25T20:16:37.813Z,13.10
2022-09-25T20:20:46.353Z,13.00
2022-09-25T20:24:54.934Z,13.00
2022-09-25T20:29:08.133Z,13.00
2022-09-25T20:33:16.654Z,12.90
2022-09-25T20:37:25.670Z,12.90
2022-09-25T20:41:34.585Z,12.80
2022-09-25T20:45:43.185Z,12.70
2022-09-25T20:49:51.718Z,12.70
2022-09-25T20:54:08.271Z,12.70
2022-09-25T20:58:17.458Z,12.60
2022-09-25T21:02:26.169Z,12.60
2022-09-25T21:06:36.211Z,12.50
2022-09-25T21:10:44.794Z,12.50
2022-09-25T21:14:53.440Z,12.50
2022-09-25T21:19:04.657Z,12.40
2022-09-25T21:23:13.410Z,12.40
2022-09-25T21:27:21.996Z,12.30
2022-09-25T21:31:37.586Z,12.30
2022-09-25T21:36:07.003Z,12.30
2022-09-25T21:40:15.629Z,12.20
2022-09-25T21:44:25.814Z,12.20
2022-09-25T21:48:35.608Z,12.10
2022-09-25T21:52:44.164Z,12.10
2022-09-25T21:56:52.737Z,12.00
2022-09-25T22:01:06.787Z,12.00
2022-09-25T22:05:15.508Z,11.90
2022-09-25T22:09:24.426Z,11.90
2022-09-25T22:13:35.730Z,11.90
2022-09-25T22:18:03.636Z,11.80
2022-09-25T22:22:12.266Z,11.80
2022-09-25T22:26:22.807Z,11.80
2022-09-25T22:30:32.050Z,11.70
2022-09-25T22:34:40.636Z,11.70
2022-09-25T22:38:49.288Z,11.80
2022-09-25T22:43:02.238Z,11.70
2022-09-25T22:47:10.817Z,11.70
2022-09-25T22:51:23.923Z,11.70
2022-09-25T22:55:33.437Z,11.70
2022-09-25T22:59:42.021Z,11.70
2022-09-25T23:03:52.118Z,11.70
2022-09-25T23:08:00.681Z,11.70
2022-09-25T23:12:09.256Z,11.80
2022-09-25T23:16:18.812Z,11.80
2022-09-25T23:20:27.666Z,11.70
2022-09-25T23:24:36.288Z,11.80
2022-09-25T23:28:45.059Z,11.80
2022-09-25T23:33:05.908Z,11.80
2022-09-25T23:37:14.750Z,11.80
2022-09-25T23:41:28.825Z,11.80
2022-09-25T23:45:39.055Z,11.80
2022-09-25T23:49:47.583Z,11.80
2022-09-25T23:53:58.414Z,11.80
2022-09-25T23:58:07.050Z,11.90
